sensor_id;sensor_type;location;lat;lon;timestamp;pressure;altitude;pressure_sealevel;temperature;humidity
17373;BME280;8803;48.116;11.590;2024-03-02T00:01:11;94549.44;;;10.05;79.53
17373;BME280;8803;48.116;11.590;2024-03-02T00:03:16;94555.08;;;9.98;80.15
17373;BME280;8803;48.116;11.590;2024-03-02T00:07:32;94548.94;;;10.02;79.84
17373;BME280;8803;48.116;11.590;2024-03-02T00:09:37;94550.91;;;9.96;79.62
17373;BME280;8803;48.116;11.590;2024-03-02T00:13:56;94541.95;;;9.97;80.22
17373;BME280;8803;48.116;11.590;2024-03-02T00:16:00;94544.57;;;9.93;79.95
17373;BME280;8803;48.116;11.590;2024-03-02T00:20:22;94544.56;;;9.89;81.87
17373;BME280;8803;48.116;11.590;2024-03-02T00:22:30;94543.08;;;9.86;81.06
17373;BME280;8803;48.116;11.590;2024-03-02T00:24:36;94540.91;;;9.86;81.29
17373;BME280;8803;48.116;11.590;2024-03-02T00:28:55;94537.24;;;9.87;81.40
17373;BME280;8803;48.116;11.590;2024-03-02T00:31:03;94533.91;;;9.85;81.26
17373;BME280;8803;48.116;11.590;2024-03-02T00:33:11;94531.61;;;9.86;80.98
17373;BME280;8803;48.116;11.590;2024-03-02T00:35:16;94530.94;;;9.84;80.94
17373;BME280;8803;48.116;11.590;2024-03-02T00:37:21;94526.11;;;9.83;80.96
17373;BME280;8803;48.116;11.590;2024-03-02T00:39:26;94529.42;;;9.81;81.68
17373;BME280;8803;48.116;11.590;2024-03-02T00:41:31;94526.94;;;9.80;81.59
17373;BME280;8803;48.116;11.590;2024-03-02T00:46:02;94521.28;;;9.83;81.91
17373;BME280;8803;48.116;11.590;2024-03-02T00:48:09;94528.55;;;9.73;82.66
17373;BME280;8803;48.116;11.590;2024-03-02T00:50:15;94521.22;;;9.67;83.26
17373;BME280;8803;48.116;11.590;2024-03-02T00:52:20;94522.06;;;9.67;83.04
17373;BME280;8803;48.116;11.590;2024-03-02T00:56:40;94517.54;;;9.64;84.16
17373;BME280;8803;48.116;11.590;2024-03-02T01:00:59;94514.17;;;9.53;85.44
17373;BME280;8803;48.116;11.590;2024-03-02T01:03:05;94511.02;;;9.50;84.63
17373;BME280;8803;48.116;11.590;2024-03-02T01:05:10;94507.13;;;9.40;86.11
17373;BME280;8803;48.116;11.590;2024-03-02T01:07:15;94515.69;;;9.26;88.20
17373;BME280;8803;48.116;11.590;2024-03-02T01:09:20;94512.41;;;9.32;86.98
17373;BME280;8803;48.116;11.590;2024-03-02T01:13:36;94515.95;;;9.45;85.45
17373;BME280;8803;48.116;11.590;2024-03-02T01:15:41;94517.45;;;9.43;84.80
17373;BME280;8803;48.116;11.590;2024-03-02T01:20:01;94517.84;;;9.52;84.38
17373;BME280;8803;48.116;11.590;2024-03-02T01:22:06;94520.15;;;9.51;84.27
17373;BME280;8803;48.116;11.590;2024-03-02T01:24:10;94520.15;;;9.51;83.96
17373;BME280;8803;48.116;11.590;2024-03-02T01:26:17;94521.29;;;9.49;84.44
17373;BME280;8803;48.116;11.590;2024-03-02T01:28:21;94518.66;;;9.53;83.89
17373;BME280;8803;48.116;11.590;2024-03-02T01:30:26;94523.48;;;9.53;83.99
17373;BME280;8803;48.116;11.590;2024-03-02T01:34:44;94523.98;;;9.57;83.99
17373;BME280;8803;48.116;11.590;2024-03-02T01:36:49;94521.98;;;9.55;83.64
17373;BME280;8803;48.116;11.590;2024-03-02T01:41:10;94519.69;;;9.60;83.60
17373;BME280;8803;48.116;11.590;2024-03-02T01:45:30;94512.88;;;9.62;83.70
17373;BME280;8803;48.116;11.590;2024-03-02T01:47:35;94520.31;;;9.50;84.29
17373;BME280;8803;48.116;11.590;2024-03-02T01:51:53;94519.33;;;9.55;84.20
17373;BME280;8803;48.116;11.590;2024-03-02T01:53:58;94519.30;;;9.51;83.98
17373;BME280;8803;48.116;11.590;2024-03-02T01:58:16;94513.70;;;9.58;83.48
17373;BME280;8803;48.116;11.590;2024-03-02T02:00:21;94508.84;;;9.49;83.61
17373;BME280;8803;48.116;11.590;2024-03-02T02:04:41;94505.91;;;9.57;83.54
17373;BME280;8803;48.116;11.590;2024-03-02T02:09:00;94500.39;;;9.50;84.45
17373;BME280;8803;48.116;11.590;2024-03-02T02:11:06;94502.84;;;9.43;84.38
17373;BME280;8803;48.116;11.590;2024-03-02T02:13:11;94501.01;;;9.40;84.76
17373;BME280;8803;48.116;11.590;2024-03-02T02:15:28;94487.19;;;9.36;84.72
17373;BME280;8803;48.116;11.590;2024-03-02T02:19:47;94487.73;;;9.40;85.11
17373;BME280;8803;48.116;11.590;2024-03-02T02:21:52;94485.02;;;9.36;84.87
17373;BME280;8803;48.116;11.590;2024-03-02T02:26:10;94476.88;;;9.29;86.24
17373;BME280;8803;48.116;11.590;2024-03-02T02:28:14;94477.84;;;9.24;86.22
17373;BME280;8803;48.116;11.590;2024-03-02T02:32:34;94472.48;;;9.16;87.71
17373;BME280;8803;48.116;11.590;2024-03-02T02:34:38;94477.47;;;9.19;86.45
17373;BME280;8803;48.116;11.590;2024-03-02T02:38:58;94472.30;;;9.14;88.01
17373;BME280;8803;48.116;11.590;2024-03-02T02:43:20;94468.67;;;9.15;87.91
17373;BME280;8803;48.116;11.590;2024-03-02T02:45:25;94477.43;;;9.11;87.88
17373;BME280;8803;48.116;11.590;2024-03-02T02:49:42;94471.66;;;9.16;87.89
17373;BME280;8803;48.116;11.590;2024-03-02T02:51:48;94471.48;;;9.17;87.24
17373;BME280;8803;48.116;11.590;2024-03-02T02:53:53;94480.13;;;9.19;86.77
17373;BME280;8803;48.116;11.590;2024-03-02T02:55:57;94478.27;;;9.12;87.85
17373;BME280;8803;48.116;11.590;2024-03-02T02:58:02;94478.48;;;9.18;87.26
17373;BME280;8803;48.116;11.590;2024-03-02T03:02:22;94473.82;;;9.16;87.90
17373;BME280;8803;48.116;11.590;2024-03-02T03:04:27;94475.31;;;9.15;87.54
17373;BME280;8803;48.116;11.590;2024-03-02T03:08:48;94484.85;;;9.29;86.15
17373;BME280;8803;48.116;11.590;2024-03-02T03:15:22;94494.16;;;9.33;86.05
17373;BME280;8803;48.116;11.590;2024-03-02T03:19:42;94490.39;;;9.40;85.22
17373;BME280;8803;48.116;11.590;2024-03-02T03:24:00;94492.69;;;9.39;85.77
17373;BME280;8803;48.116;11.590;2024-03-02T03:26:05;94495.83;;;9.38;84.97
17373;BME280;8803;48.116;11.590;2024-03-02T03:28:10;94494.86;;;9.39;84.75
17373;BME280;8803;48.116;11.590;2024-03-02T03:30:16;94494.20;;;9.41;84.46
17373;BME280;8803;48.116;11.590;2024-03-02T03:32:20;94498.86;;;9.43;84.18
17373;BME280;8803;48.116;11.590;2024-03-02T03:36:39;94489.95;;;9.52;83.82
17373;BME280;8803;48.116;11.590;2024-03-02T03:38:43;94504.38;;;9.50;83.50
17373;BME280;8803;48.116;11.590;2024-03-02T03:43:01;94497.09;;;9.56;83.28
17373;BME280;8803;48.116;11.590;2024-03-02T03:45:09;94499.08;;;9.54;82.99
17373;BME280;8803;48.116;11.590;2024-03-02T03:47:14;94498.42;;;9.56;82.79
17373;BME280;8803;48.116;11.590;2024-03-02T03:49:19;94504.51;;;9.48;84.41
17373;BME280;8803;48.116;11.590;2024-03-02T03:51:23;94504.70;;;9.51;83.98
17373;BME280;8803;48.116;11.590;2024-03-02T03:53:28;94503.14;;;9.40;85.95
17373;BME280;8803;48.116;11.590;2024-03-02T03:55:33;94499.70;;;9.44;86.05
17373;BME280;8803;48.116;11.590;2024-03-02T03:57:38;94496.64;;;9.31;87.80
17373;BME280;8803;48.116;11.590;2024-03-02T04:01:54;94505.97;;;9.39;87.04
17373;BME280;8803;48.116;11.590;2024-03-02T04:03:59;94502.16;;;9.37;85.95
17373;BME280;8803;48.116;11.590;2024-03-02T04:06:06;94498.30;;;9.36;86.13
17373;BME280;8803;48.116;11.590;2024-03-02T04:08:10;94506.16;;;9.41;85.30
17373;BME280;8803;48.116;11.590;2024-03-02T04:10:15;94501.98;;;9.39;85.39
17373;BME280;8803;48.116;11.590;2024-03-02T04:12:20;94499.50;;;9.37;86.21
17373;BME280;8803;48.116;11.590;2024-03-02T04:14:25;94503.98;;;9.41;85.30
17373;BME280;8803;48.116;11.590;2024-03-02T04:16:29;94502.36;;;9.44;85.09
17373;BME280;8803;48.116;11.590;2024-03-02T04:18:34;94502.19;;;9.45;84.61
17373;BME280;8803;48.116;11.590;2024-03-02T04:20:39;94502.84;;;9.43;84.91
17373;BME280;8803;48.116;11.590;2024-03-02T04:22:43;94507.15;;;9.44;85.12
17373;BME280;8803;48.116;11.590;2024-03-02T04:24:48;94510.16;;;9.45;84.80
17373;BME280;8803;48.116;11.590;2024-03-02T04:26:53;94517.12;;;9.46;84.58
17373;BME280;8803;48.116;11.590;2024-03-02T04:28:57;94516.81;;;9.49;84.11
17373;BME280;8803;48.116;11.590;2024-03-02T04:31:01;94516.65;;;9.51;83.85
17373;BME280;8803;48.116;11.590;2024-03-02T04:33:06;94515.67;;;9.52;83.67
17373;BME280;8803;48.116;11.590;2024-03-02T04:35:14;94515.19;;;9.52;83.81
17373;BME280;8803;48.116;11.590;2024-03-02T04:37:19;94515.86;;;9.54;83.60
17373;BME280;8803;48.116;11.590;2024-03-02T04:39:23;94513.87;;;9.57;83.42
17373;BME280;8803;48.116;11.590;2024-03-02T04:41:29;94510.55;;;9.54;83.49
17373;BME280;8803;48.116;11.590;2024-03-02T04:43:34;94518.50;;;9.50;84.51
17373;BME280;8803;48.116;11.590;2024-03-02T04:45:39;94517.67;;;9.54;84.02
17373;BME280;8803;48.116;11.590;2024-03-02T04:47:44;94517.00;;;9.52;84.08
17373;BME280;8803;48.116;11.590;2024-03-02T04:49:49;94524.80;;;9.53;84.15
17373;BME280;8803;48.116;11.590;2024-03-02T04:51:53;94522.31;;;9.52;84.29
17373;BME280;8803;48.116;11.590;2024-03-02T04:53:58;94523.48;;;9.53;83.87
17373;BME280;8803;48.116;11.590;2024-03-02T04:56:05;94527.30;;;9.55;83.56
17373;BME280;8803;48.116;11.590;2024-03-02T04:58:25;94528.80;;;9.53;83.97
17373;BME280;8803;48.116;11.590;2024-03-02T05:00:31;94532.28;;;9.54;83.63
17373;BME280;8803;48.116;11.590;2024-03-02T05:04:52;94543.30;;;9.63;83.27
17373;BME280;8803;48.116;11.590;2024-03-02T05:06:56;94548.56;;;9.59;82.96
17373;BME280;8803;48.116;11.590;2024-03-02T05:11:14;94547.80;;;9.67;82.79
17373;BME280;8803;48.116;11.590;2024-03-02T05:13:37;94554.25;;;9.64;82.49
17373;BME280;8803;48.116;11.590;2024-03-02T05:15:42;94552.44;;;9.65;82.30
17373;BME280;8803;48.116;11.590;2024-03-02T05:20:01;94553.61;;;9.70;82.36
17373;BME280;8803;48.116;11.590;2024-03-02T05:22:07;94551.78;;;9.67;82.12
17373;BME280;8803;48.116;11.590;2024-03-02T05:24:11;94558.75;;;9.68;82.09
17373;BME280;8803;48.116;11.590;2024-03-02T05:26:16;94554.76;;;9.68;81.97
17373;BME280;8803;48.116;11.590;2024-03-02T05:28:21;94550.64;;;9.69;81.80
17373;BME280;8803;48.116;11.590;2024-03-02T05:30:26;94547.81;;;9.71;81.80
17373;BME280;8803;48.116;11.590;2024-03-02T05:34:43;94546.18;;;9.74;81.81
17373;BME280;8803;48.116;11.590;2024-03-02T05:36:48;94540.01;;;9.69;81.54
17373;BME280;8803;48.116;11.590;2024-03-02T05:38:52;94547.81;;;9.71;81.50
17373;BME280;8803;48.116;11.590;2024-03-02T05:45:21;94548.67;;;9.75;81.56
17373;BME280;8803;48.116;11.590;2024-03-02T05:47:28;94551.31;;;9.71;81.39
17373;BME280;8803;48.116;11.590;2024-03-02T05:49:32;94555.78;;;9.71;81.37
17373;BME280;8803;48.116;11.590;2024-03-02T05:53:50;94549.64;;;9.74;81.54
17373;BME280;8803;48.116;11.590;2024-03-02T05:55:55;94553.45;;;9.72;81.53
17373;BME280;8803;48.116;11.590;2024-03-02T06:00:15;94556.64;;;9.75;81.42
17373;BME280;8803;48.116;11.590;2024-03-02T06:04:34;94556.64;;;9.75;81.34
17373;BME280;8803;48.116;11.590;2024-03-02T06:06:39;94558.27;;;9.72;81.14
17373;BME280;8803;48.116;11.590;2024-03-02T06:10:56;94555.98;;;9.77;81.16
17373;BME280;8803;48.116;11.590;2024-03-02T06:13:01;94562.61;;;9.73;81.03
17373;BME280;8803;48.116;11.590;2024-03-02T06:15:10;94558.95;;;9.74;80.99
17373;BME280;8803;48.116;11.590;2024-03-02T06:17:14;94557.13;;;9.75;80.94
17373;BME280;8803;48.116;11.590;2024-03-02T06:19:19;94564.94;;;9.76;80.91
17373;BME280;8803;48.116;11.590;2024-03-02T06:21:24;94563.47;;;9.78;80.99
17373;BME280;8803;48.116;11.590;2024-03-02T06:25:43;94561.15;;;9.83;80.90
17373;BME280;8803;48.116;11.590;2024-03-02T06:30:00;94562.83;;;9.84;80.92
17373;BME280;8803;48.116;11.590;2024-03-02T06:32:07;94566.63;;;9.81;80.68
17373;BME280;8803;48.116;11.590;2024-03-02T06:34:12;94562.48;;;9.83;80.46
17373;BME280;8803;48.116;11.590;2024-03-02T06:36:17;94565.14;;;9.83;80.45
17373;BME280;8803;48.116;11.590;2024-03-02T06:38:22;94561.83;;;9.85;80.44
17373;BME280;8803;48.116;11.590;2024-03-02T06:42:40;94558.52;;;9.91;80.56
17373;BME280;8803;48.116;11.590;2024-03-02T06:44:44;94563.16;;;9.89;80.22
17373;BME280;8803;48.116;11.590;2024-03-02T06:46:49;94559.04;;;9.90;80.12
17373;BME280;8803;48.116;11.590;2024-03-02T06:48:54;94559.72;;;9.92;80.05
17373;BME280;8803;48.116;11.590;2024-03-02T06:50:58;94562.52;;;9.95;79.84
17373;BME280;8803;48.116;11.590;2024-03-02T06:53:05;94555.39;;;9.95;79.88
17373;BME280;8803;48.116;11.590;2024-03-02T06:55:10;94555.25;;;9.97;79.86
17373;BME280;8803;48.116;11.590;2024-03-02T06:57:16;94553.75;;;9.98;79.64
17373;BME280;8803;48.116;11.590;2024-03-02T06:59:22;94561.56;;;10.00;79.52
17373;BME280;8803;48.116;11.590;2024-03-02T07:01:28;94562.72;;;10.01;79.42
17373;BME280;8803;48.116;11.590;2024-03-02T07:05:46;94554.45;;;10.08;79.59
17373;BME280;8803;48.116;11.590;2024-03-02T07:07:51;94552.61;;;10.05;79.33
17373;BME280;8803;48.116;11.590;2024-03-02T07:12:09;94546.30;;;10.10;80.01
17373;BME280;8803;48.116;11.590;2024-03-02T07:14:14;94549.79;;;10.06;80.30
17373;BME280;8803;48.116;11.590;2024-03-02T07:18:32;94551.52;;;10.15;79.75
17373;BME280;8803;48.116;11.590;2024-03-02T07:20:36;94556.98;;;10.14;79.40
17373;BME280;8803;48.116;11.590;2024-03-02T07:24:55;94553.36;;;10.23;79.47
17373;BME280;8803;48.116;11.590;2024-03-02T07:26:59;94562.35;;;10.22;79.02
17373;BME280;8803;48.116;11.590;2024-03-02T07:31:20;94557.03;;;10.22;81.15
17373;BME280;8803;48.116;11.590;2024-03-02T07:35:38;94563.70;;;10.30;79.74
17373;BME280;8803;48.116;11.590;2024-03-02T07:37:43;94572.48;;;10.26;79.53
17373;BME280;8803;48.116;11.590;2024-03-02T07:42:03;94574.17;;;10.36;79.17
17373;BME280;8803;48.116;11.590;2024-03-02T07:44:09;94576.84;;;10.36;78.90
17373;BME280;8803;48.116;11.590;2024-03-02T07:46:15;94571.20;;;10.35;78.80
17373;BME280;8803;48.116;11.590;2024-03-02T07:48:21;94573.87;;;10.39;78.56
17373;BME280;8803;48.116;11.590;2024-03-02T07:50:25;94573.70;;;10.40;78.54
17373;BME280;8803;48.116;11.590;2024-03-02T07:52:30;94574.72;;;10.43;78.36
17373;BME280;8803;48.116;11.590;2024-03-02T07:56:48;94570.39;;;10.50;78.44
17373;BME280;8803;48.116;11.590;2024-03-02T08:01:06;94564.75;;;10.53;78.72
17373;BME280;8803;48.116;11.590;2024-03-02T08:03:10;94571.41;;;10.53;78.11
17373;BME280;8803;48.116;11.590;2024-03-02T08:07:28;94576.25;;;10.62;77.83
17373;BME280;8803;48.116;11.590;2024-03-02T08:09:34;94575.05;;;10.60;77.49
17373;BME280;8803;48.116;11.590;2024-03-02T08:13:52;94575.59;;;10.72;78.18
17373;BME280;8803;48.116;11.590;2024-03-02T08:15:58;94582.56;;;10.69;78.31
17373;BME280;8803;48.116;11.590;2024-03-02T08:20:17;94572.44;;;10.76;78.84
17373;BME280;8803;48.116;11.590;2024-03-02T08:22:21;94575.09;;;10.72;79.00
17373;BME280;8803;48.116;11.590;2024-03-02T08:26:41;94573.28;;;10.81;78.13
17373;BME280;8803;48.116;11.590;2024-03-02T08:28:46;94580.43;;;10.80;77.65
17373;BME280;8803;48.116;11.590;2024-03-02T08:33:05;94585.44;;;10.91;77.06
17373;BME280;8803;48.116;11.590;2024-03-02T08:37:26;94586.59;;;10.93;77.15
17373;BME280;8803;48.116;11.590;2024-03-02T08:39:30;94583.45;;;10.89;77.32
17373;BME280;8803;48.116;11.590;2024-03-02T08:41:35;94582.11;;;10.89;77.37
17373;BME280;8803;48.116;11.590;2024-03-02T08:43:42;94588.42;;;10.92;77.22
17373;BME280;8803;48.116;11.590;2024-03-02T08:45:47;94590.42;;;10.94;77.38
17373;BME280;8803;48.116;11.590;2024-03-02T08:47:53;94598.23;;;10.96;77.38
17373;BME280;8803;48.116;11.590;2024-03-02T08:49:58;94595.92;;;10.97;76.93
17373;BME280;8803;48.116;11.590;2024-03-02T08:52:03;94599.91;;;10.93;78.24
17373;BME280;8803;48.116;11.590;2024-03-02T08:54:08;94593.57;;;10.94;79.20
17373;BME280;8803;48.116;11.590;2024-03-02T08:56:12;94594.91;;;10.94;79.71
17373;BME280;8803;48.116;11.590;2024-03-02T08:58:18;94600.22;;;10.74;82.28
17373;BME280;8803;48.116;11.590;2024-03-02T09:00:24;94588.91;;;10.88;80.48
17373;BME280;8803;48.116;11.590;2024-03-02T09:02:29;94591.75;;;10.90;80.58
17373;BME280;8803;48.116;11.590;2024-03-02T09:04:34;94594.09;;;10.97;80.35
17373;BME280;8803;48.116;11.590;2024-03-02T09:06:38;94596.23;;;10.98;80.11
17373;BME280;8803;48.116;11.590;2024-03-02T09:08:44;94594.94;;;11.02;79.71
17373;BME280;8803;48.116;11.590;2024-03-02T09:10:49;94594.41;;;11.02;80.40
17373;BME280;8803;48.116;11.590;2024-03-02T09:12:53;94596.27;;;11.06;80.05
17373;BME280;8803;48.116;11.590;2024-03-02T09:14:58;94601.42;;;11.11;79.25
17373;BME280;8803;48.116;11.590;2024-03-02T09:17:04;94599.42;;;11.13;78.99
17373;BME280;8803;48.116;11.590;2024-03-02T09:19:09;94600.44;;;11.17;78.57
17373;BME280;8803;48.116;11.590;2024-03-02T09:21:13;94595.25;;;11.19;78.52
17373;BME280;8803;48.116;11.590;2024-03-02T09:23:18;94599.59;;;11.20;78.75
17373;BME280;8803;48.116;11.590;2024-03-02T09:25:23;94602.58;;;11.17;78.78
17373;BME280;8803;48.116;11.590;2024-03-02T09:27:29;94601.91;;;11.15;78.96
17373;BME280;8803;48.116;11.590;2024-03-02T09:29:34;94596.76;;;11.13;78.78
17373;BME280;8803;48.116;11.590;2024-03-02T09:31:41;94597.59;;;11.14;78.61
17373;BME280;8803;48.116;11.590;2024-03-02T09:33:46;94596.91;;;10.96;81.06
17373;BME280;8803;48.116;11.590;2024-03-02T09:38:04;94593.43;;;11.07;80.73
17373;BME280;8803;48.116;11.590;2024-03-02T09:40:12;94591.61;;;11.12;79.14
17373;BME280;8803;48.116;11.590;2024-03-02T09:44:32;94579.62;;;11.12;80.75
17373;BME280;8803;48.116;11.590;2024-03-02T09:48:50;94580.44;;;10.96;81.95
17373;BME280;8803;48.116;11.590;2024-03-02T09:50:55;94582.43;;;11.02;80.89
17373;BME280;8803;48.116;11.590;2024-03-02T09:55:14;94580.28;;;11.14;81.45
17373;BME280;8803;48.116;11.590;2024-03-02T09:57:20;94580.92;;;10.92;82.90
17373;BME280;8803;48.116;11.590;2024-03-02T10:01:38;94578.77;;;11.16;82.54
17373;BME280;8803;48.116;11.590;2024-03-02T10:08:43;94569.95;;;11.35;80.58
17373;BME280;8803;48.116;11.590;2024-03-02T10:13:04;94562.08;;;11.58;79.00
17373;BME280;8803;48.116;11.590;2024-03-02T10:15:10;94564.08;;;11.56;78.91
17373;BME280;8803;48.116;11.590;2024-03-02T10:17:17;94565.73;;;11.65;78.58
17373;BME280;8803;48.116;11.590;2024-03-02T10:21:33;94557.74;;;11.73;78.33
17373;BME280;8803;48.116;11.590;2024-03-02T10:23:38;94557.23;;;11.77;77.69
17373;BME280;8803;48.116;11.590;2024-03-02T10:25:43;94564.06;;;11.72;77.83
17373;BME280;8803;48.116;11.590;2024-03-02T10:30:13;94554.36;;;11.87;76.72
17373;BME280;8803;48.116;11.590;2024-03-02T10:32:18;94554.39;;;11.79;76.78
17373;BME280;8803;48.116;11.590;2024-03-02T10:34:23;94553.39;;;11.84;76.92
17373;BME280;8803;48.116;11.590;2024-03-02T10:36:27;94547.86;;;11.89;76.51
17373;BME280;8803;48.116;11.590;2024-03-02T10:38:33;94546.17;;;11.88;76.68
17373;BME280;8803;48.116;11.590;2024-03-02T10:42:52;94547.88;;;11.85;75.29
17373;BME280;8803;48.116;11.590;2024-03-02T10:44:57;94545.72;;;11.81;75.37
17373;BME280;8803;48.116;11.590;2024-03-02T10:47:05;94542.17;;;11.88;75.21
17373;BME280;8803;48.116;11.590;2024-03-02T10:51:23;94529.37;;;11.80;76.56
17373;BME280;8803;48.116;11.590;2024-03-02T10:53:29;94526.72;;;11.76;76.77
17373;BME280;8803;48.116;11.590;2024-03-02T10:55:35;94520.69;;;11.90;76.21
17373;BME280;8803;48.116;11.590;2024-03-02T10:59:59;94514.63;;;12.04;75.03
17373;BME280;8803;48.116;11.590;2024-03-02T11:02:05;94505.94;;;12.06;75.17
17373;BME280;8803;48.116;11.590;2024-03-02T11:06:28;94498.21;;;12.19;75.28
17373;BME280;8803;48.116;11.590;2024-03-02T11:08:38;94499.61;;;12.07;76.51
17373;BME280;8803;48.116;11.590;2024-03-02T11:13:02;94487.98;;;12.27;75.73
17373;BME280;8803;48.116;11.590;2024-03-02T11:15:10;94494.81;;;12.29;74.76
17373;BME280;8803;48.116;11.590;2024-03-02T11:17:17;94489.84;;;12.22;75.15
17373;BME280;8803;48.116;11.590;2024-03-02T11:21:37;94474.27;;;12.34;75.76
17373;BME280;8803;48.116;11.590;2024-03-02T11:25:56;94471.08;;;12.38;75.20
17373;BME280;8803;48.116;11.590;2024-03-02T11:28:08;94474.73;;;12.37;74.48
17373;BME280;8803;48.116;11.590;2024-03-02T11:30:32;94468.01;;;12.45;73.94
17373;BME280;8803;48.116;11.590;2024-03-02T11:32:37;94463.07;;;12.38;74.23
17373;BME280;8803;48.116;11.590;2024-03-02T11:34:43;94460.34;;;12.46;73.62
17373;BME280;8803;48.116;11.590;2024-03-02T11:39:04;94454.63;;;12.49;74.17
17373;BME280;8803;48.116;11.590;2024-03-02T11:41:09;94454.50;;;12.47;73.66
17373;BME280;8803;48.116;11.590;2024-03-02T11:45:28;94447.61;;;12.52;73.39
17373;BME280;8803;48.116;11.590;2024-03-02T11:47:34;94447.27;;;12.55;73.19
17373;BME280;8803;48.116;11.590;2024-03-02T11:54:13;94431.80;;;12.69;72.62
17373;BME280;8803;48.116;11.590;2024-03-02T11:56:20;94430.30;;;12.67;72.39
17373;BME280;8803;48.116;11.590;2024-03-02T12:00:39;94419.51;;;12.60;72.08
17373;BME280;8803;48.116;11.590;2024-03-02T12:02:43;94424.81;;;12.64;72.01
17373;BME280;8803;48.116;11.590;2024-03-02T12:04:50;94421.61;;;12.69;71.99
17373;BME280;8803;48.116;11.590;2024-03-02T12:06:59;94423.59;;;12.71;71.62
17373;BME280;8803;48.116;11.590;2024-03-02T12:11:16;94414.02;;;12.81;71.34
17373;BME280;8803;48.116;11.590;2024-03-02T12:13:20;94415.95;;;12.87;70.78
17373;BME280;8803;48.116;11.590;2024-03-02T12:17:39;94412.19;;;12.77;70.84
17373;BME280;8803;48.116;11.590;2024-03-02T12:21:57;94401.22;;;12.91;71.22
17373;BME280;8803;48.116;11.590;2024-03-02T12:24:02;94400.73;;;12.91;70.87
17373;BME280;8803;48.116;11.590;2024-03-02T12:26:08;94401.03;;;12.92;71.21
17373;BME280;8803;48.116;11.590;2024-03-02T12:28:12;94397.26;;;12.87;71.53
17373;BME280;8803;48.116;11.590;2024-03-02T12:30:20;94388.78;;;12.98;71.31
17373;BME280;8803;48.116;11.590;2024-03-02T12:34:40;94383.92;;;13.01;71.28
17373;BME280;8803;48.116;11.590;2024-03-02T12:36:45;94384.30;;;12.80;71.98
17373;BME280;8803;48.116;11.590;2024-03-02T12:38:57;94380.20;;;12.88;72.05
17373;BME280;8803;48.116;11.590;2024-03-02T12:41:04;94379.02;;;12.90;72.03
17373;BME280;8803;48.116;11.590;2024-03-02T12:43:10;94367.09;;;12.97;71.58
17373;BME280;8803;48.116;11.590;2024-03-02T12:45:15;94368.83;;;12.90;72.58
17373;BME280;8803;48.116;11.590;2024-03-02T12:49:37;94350.13;;;12.90;72.01
17373;BME280;8803;48.116;11.590;2024-03-02T12:51:42;94367.08;;;12.82;72.52
17373;BME280;8803;48.116;11.590;2024-03-02T12:56:09;94346.73;;;12.96;72.28
17373;BME280;8803;48.116;11.590;2024-03-02T12:58:19;94356.02;;;12.85;72.36
17373;BME280;8803;48.116;11.590;2024-03-02T13:00:24;94350.88;;;12.98;72.15
17373;BME280;8803;48.116;11.590;2024-03-02T13:04:44;94334.98;;;13.05;71.82
17373;BME280;8803;48.116;11.590;2024-03-02T13:06:49;94339.70;;;12.99;72.26
17373;BME280;8803;48.116;11.590;2024-03-02T13:08:55;94337.27;;;12.93;72.94
17373;BME280;8803;48.116;11.590;2024-03-02T13:10:59;94329.36;;;12.96;72.98
17373;BME280;8803;48.116;11.590;2024-03-02T13:13:04;94338.63;;;13.08;72.24
17373;BME280;8803;48.116;11.590;2024-03-02T13:15:10;94325.64;;;13.01;72.33
17373;BME280;8803;48.116;11.590;2024-03-02T13:17:15;94320.66;;;12.98;72.61
17373;BME280;8803;48.116;11.590;2024-03-02T13:19:20;94324.36;;;12.97;72.87
17373;BME280;8803;48.116;11.590;2024-03-02T13:21:24;94321.88;;;12.95;72.61
17373;BME280;8803;48.116;11.590;2024-03-02T13:23:29;94315.05;;;12.93;71.98
17373;BME280;8803;48.116;11.590;2024-03-02T13:27:47;94312.48;;;12.99;72.75
17373;BME280;8803;48.116;11.590;2024-03-02T13:29:51;94312.22;;;13.09;72.71
17373;BME280;8803;48.116;11.590;2024-03-02T13:31:56;94313.41;;;13.06;73.84
17373;BME280;8803;48.116;11.590;2024-03-02T13:34:01;94309.98;;;13.16;73.24
17373;BME280;8803;48.116;11.590;2024-03-02T13:36:10;94304.48;;;13.14;73.44
17373;BME280;8803;48.116;11.590;2024-03-02T13:38:15;94291.72;;;13.20;72.71
17373;BME280;8803;48.116;11.590;2024-03-02T13:40:19;94290.52;;;13.22;72.89
17373;BME280;8803;48.116;11.590;2024-03-02T13:42:24;94293.75;;;13.18;73.21
17373;BME280;8803;48.116;11.590;2024-03-02T13:44:29;94293.75;;;13.18;73.65
17373;BME280;8803;48.116;11.590;2024-03-02T13:46:34;94289.41;;;13.17;73.27
17373;BME280;8803;48.116;11.590;2024-03-02T13:48:39;94296.61;;;13.16;74.19
17373;BME280;8803;48.116;11.590;2024-03-02T13:50:44;94297.66;;;13.11;74.57
17373;BME280;8803;48.116;11.590;2024-03-02T13:52:49;94293.06;;;13.05;74.69
17373;BME280;8803;48.116;11.590;2024-03-02T13:54:54;94299.25;;;13.06;75.22
17373;BME280;8803;48.116;11.590;2024-03-02T13:56:58;94289.98;;;13.12;75.19
17373;BME280;8803;48.116;11.590;2024-03-02T13:59:04;94292.94;;;13.28;73.87
17373;BME280;8803;48.116;11.590;2024-03-02T14:01:09;94289.34;;;13.21;73.98
17373;BME280;8803;48.116;11.590;2024-03-02T14:03:14;94291.30;;;13.27;73.85
17373;BME280;8803;48.116;11.590;2024-03-02T14:05:18;94277.89;;;13.31;73.35
17373;BME280;8803;48.116;11.590;2024-03-02T14:07:23;94281.34;;;13.35;72.62
17373;BME280;8803;48.116;11.590;2024-03-02T14:09:28;94280.58;;;13.41;71.89
17373;BME280;8803;48.116;11.590;2024-03-02T14:13:47;94268.83;;;13.32;71.44
17373;BME280;8803;48.116;11.590;2024-03-02T14:15:53;94276.63;;;13.23;70.74
17373;BME280;8803;48.116;11.590;2024-03-02T14:17:58;94267.95;;;13.25;70.42
17373;BME280;8803;48.116;11.590;2024-03-02T14:20:07;94270.17;;;13.32;69.68
17373;BME280;8803;48.116;11.590;2024-03-02T14:24:26;94266.66;;;13.31;68.43
17373;BME280;8803;48.116;11.590;2024-03-02T14:26:32;94273.31;;;13.35;69.67
17373;BME280;8803;48.116;11.590;2024-03-02T14:28:39;94268.78;;;13.36;69.65
17373;BME280;8803;48.116;11.590;2024-03-02T14:32:57;94258.16;;;13.42;70.11
17373;BME280;8803;48.116;11.590;2024-03-02T14:35:03;94271.56;;;13.28;70.58